createdAt,value
2018-12-14T00:01:20.260Z,34.53
2018-12-14T00:03:49.251Z,33.50
2018-12-14T00:06:18.187Z,29.97
2018-12-14T00:08:47.151Z,36.60
2018-12-14T00:11:16.143Z,32.37
2018-12-14T00:13:45.233Z,33.77
2018-12-14T00:16:14.107Z,30.60
2018-12-14T00:18:42.996Z,33.73
2018-12-14T00:21:11.940Z,35.00
2018-12-14T00:23:40.642Z,30.90
2018-12-14T00:26:09.592Z,30.80
2018-12-14T00:28:38.452Z,30.53
2018-12-14T00:31:07.615Z,28.27
2018-12-14T00:33:36.677Z,29.77
2018-12-14T00:36:05.735Z,31.13
2018-12-14T00:38:34.825Z,32.67
2018-12-14T00:41:03.721Z,26.83
2018-12-14T00:43:32.790Z,25.73
2018-12-14T00:46:01.792Z,23.97
2018-12-14T00:48:30.823Z,26.80
2018-12-14T00:50:59.445Z,25.60
2018-12-14T00:53:28.303Z,25.57
2018-12-14T00:55:56.927Z,24.53
2018-12-14T00:58:25.973Z,23.43
2018-12-14T01:00:54.975Z,24.97
2018-12-14T01:03:23.696Z,26.17
2018-12-14T01:05:52.904Z,26.00
2018-12-14T01:08:21.639Z,28.80
2018-12-14T01:10:50.498Z,27.00
2018-12-14T01:13:19.520Z,27.57
2018-12-14T01:15:48.446Z,29.50
2018-12-14T01:18:17.347Z,33.23
2018-12-14T01:20:46.289Z,34.57
2018-12-14T01:23:15.256Z,31.67
2018-12-14T01:25:44.050Z,33.23
2018-12-14T01:28:12.818Z,28.63
2018-12-14T01:30:41.662Z,29.03
2018-12-14T01:33:10.640Z,36.47
2018-12-14T01:35:39.547Z,33.00
2018-12-14T01:38:08.394Z,36.97
2018-12-14T01:40:37.332Z,36.10
2018-12-14T01:43:06.298Z,37.53
2018-12-14T01:45:35.494Z,31.77
2018-12-14T01:48:04.457Z,37.07
2018-12-14T01:50:33.418Z,38.00
2018-12-14T01:53:02.222Z,39.53
2018-12-14T01:55:31.252Z,35.57
2018-12-14T01:58:00.314Z,35.43
2018-12-14T02:00:29.386Z,34.83
2018-12-14T02:02:58.252Z,34.50
2018-12-14T02:05:27.315Z,34.40
2018-12-14T02:07:56.079Z,34.70
2018-12-14T02:10:25.066Z,36.93
2018-12-14T02:12:54.058Z,30.10
2018-12-14T02:15:22.744Z,35.13
2018-12-14T02:17:51.675Z,33.43
2018-12-14T02:20:20.504Z,35.33
2018-12-14T02:22:49.371Z,32.33
2018-12-14T02:25:18.345Z,33.93
2018-12-14T02:27:47.363Z,33.80
2018-12-14T02:30:27.091Z,38.07
2018-12-14T02:32:56.118Z,33.07
2018-12-14T02:35:25.068Z,34.20
2018-12-14T02:37:54.287Z,37.97
2018-12-14T02:40:23.353Z,32.43
2018-12-14T02:42:52.274Z,34.20
2018-12-14T02:45:21.193Z,38.87
2018-12-14T02:47:50.235Z,44.03
2018-12-14T02:50:19.318Z,39.03
2018-12-14T02:52:48.377Z,37.80
2018-12-14T02:55:17.467Z,41.43
2018-12-14T02:57:46.531Z,40.73
2018-12-14T03:00:15.241Z,37.60
2018-12-14T03:02:44.457Z,39.97
2018-12-14T03:05:13.399Z,38.00
2018-12-14T03:07:42.354Z,48.10
2018-12-14T03:10:11.505Z,55.60
2018-12-14T03:12:40.364Z,48.77
2018-12-14T03:15:09.399Z,54.60
2018-12-14T03:17:38.544Z,53.40
2018-12-14T03:20:08.476Z,51.23
2018-12-14T03:22:37.625Z,51.47
2018-12-14T03:25:06.759Z,56.70
2018-12-14T03:27:35.799Z,58.63
2018-12-14T03:30:05.435Z,54.63
2018-12-14T03:32:34.468Z,47.83
2018-12-14T03:35:03.305Z,56.73
2018-12-14T03:37:32.377Z,53.23
2018-12-14T03:40:01.407Z,51.13
2018-12-14T03:42:34.234Z,51.07
2018-12-14T03:45:01.305Z,52.53
2018-12-14T03:47:30.040Z,51.77
2018-12-14T03:49:59.174Z,60.97
2018-12-14T03:52:28.206Z,51.70
2018-12-14T03:54:56.936Z,51.63
2018-12-14T03:57:25.792Z,57.43
2018-12-14T03:59:54.706Z,49.40
2018-12-14T04:02:23.571Z,52.83
2018-12-14T04:04:52.488Z,57.37
2018-12-14T04:07:21.469Z,55.40
2018-12-14T04:09:50.417Z,52.77
2018-12-14T04:12:19.508Z,56.50
2018-12-14T04:14:48.649Z,55.67
2018-12-14T04:17:17.681Z,53.10
2018-12-14T04:19:46.744Z,49.97
2018-12-14T04:22:15.659Z,50.87
2018-12-14T04:24:44.593Z,50.17
2018-12-14T04:27:13.639Z,47.67
2018-12-14T04:29:42.553Z,61.17
2018-12-14T04:32:11.301Z,70.73
2018-12-14T04:34:40.429Z,73.07
2018-12-14T04:37:09.342Z,75.00
2018-12-14T04:39:38.064Z,63.03
2018-12-14T04:42:07.090Z,136.03
2018-12-14T04:44:35.744Z,155.00
2018-12-14T04:47:04.657Z,109.23
2018-12-14T04:49:33.849Z,210.03
2018-12-14T04:52:05.196Z,167.90
2018-12-14T04:54:34.266Z,70.50
2018-12-14T04:57:03.139Z,59.30
2018-12-14T04:59:32.224Z,71.60
2018-12-14T05:02:01.284Z,63.50
2018-12-14T05:04:30.334Z,59.97
2018-12-14T05:06:59.196Z,56.50
2018-12-14T05:09:28.366Z,153.50
2018-12-14T05:11:57.369Z,79.13
2018-12-14T05:14:26.319Z,72.27
2018-12-14T05:16:55.200Z,54.23
2018-12-14T05:19:24.204Z,52.57
2018-12-14T05:21:53.228Z,50.13
2018-12-14T05:24:21.888Z,49.77
2018-12-14T05:26:50.503Z,48.13
2018-12-14T05:29:19.464Z,45.63
2018-12-14T05:31:48.293Z,48.33
2018-12-14T05:34:17.389Z,46.43
2018-12-14T05:36:45.992Z,41.73
2018-12-14T05:39:15.191Z,42.87
2018-12-14T05:41:44.032Z,49.83
2018-12-14T05:44:12.968Z,44.73
2018-12-14T05:46:42.080Z,45.80
2018-12-14T05:49:11.088Z,44.30
2018-12-14T05:51:40.038Z,47.83
2018-12-14T05:54:09.059Z,52.30
2018-12-14T05:56:38.183Z,46.63
2018-12-14T05:59:06.995Z,35.33
2018-12-14T06:01:36.048Z,39.87
2018-12-14T06:04:05.311Z,53.13
2018-12-14T06:06:34.037Z,53.87
2018-12-14T06:09:04.192Z,54.27
2018-12-14T06:11:33.277Z,57.23
2018-12-14T06:14:02.281Z,57.27
2018-12-14T06:16:30.948Z,46.43
2018-12-14T06:18:59.966Z,104.73
2018-12-14T06:21:29.076Z,95.63
2018-12-14T06:23:58.046Z,76.97
2018-12-14T06:26:27.075Z,81.37
2018-12-14T06:28:55.980Z,76.73
2018-12-14T06:31:25.008Z,71.27
2018-12-14T06:33:53.740Z,48.73
2018-12-14T06:36:22.584Z,49.40
2018-12-14T06:38:51.525Z,59.37
2018-12-14T06:41:20.455Z,55.00
2018-12-14T06:43:49.518Z,63.87
2018-12-14T06:46:18.838Z,48.93
2018-12-14T06:48:47.897Z,56.60
2018-12-14T06:51:16.939Z,57.47
2018-12-14T06:53:45.956Z,59.60
2018-12-14T06:56:14.847Z,61.50
2018-12-14T06:58:43.839Z,63.97
2018-12-14T07:01:12.872Z,79.90
2018-12-14T07:03:41.912Z,97.23
2018-12-14T07:06:10.828Z,81.33
2018-12-14T07:08:39.554Z,68.37
2018-12-14T07:11:08.488Z,74.33
2018-12-14T07:13:37.248Z,70.13
2018-12-14T07:16:06.289Z,74.93
2018-12-14T07:18:35.383Z,68.63
2018-12-14T07:21:04.285Z,65.83
2018-12-14T07:23:33.334Z,66.10
2018-12-14T07:26:02.099Z,60.90
2018-12-14T07:28:30.808Z,194.83
2018-12-14T07:30:59.893Z,146.83
2018-12-14T07:33:28.850Z,336.23
2018-12-14T07:35:57.753Z,142.80
2018-12-14T07:38:26.834Z,93.07
2018-12-14T07:40:55.701Z,73.70
2018-12-14T07:43:28.323Z,60.33
2018-12-14T07:45:55.494Z,45.33
2018-12-14T07:48:24.361Z,43.03
2018-12-14T07:50:53.325Z,45.67
2018-12-14T07:53:22.091Z,54.60
2018-12-14T07:55:51.253Z,63.63
2018-12-14T07:58:20.374Z,48.07
2018-12-14T08:00:49.411Z,74.40
2018-12-14T08:03:18.430Z,99.03
2018-12-14T08:05:47.491Z,65.33
2018-12-14T08:08:16.728Z,47.23
2018-12-14T08:10:45.692Z,50.30
2018-12-14T08:13:14.801Z,56.37
2018-12-14T08:15:43.767Z,67.77
2018-12-14T08:18:12.695Z,50.17
2018-12-14T08:20:41.636Z,72.10
2018-12-14T08:23:10.308Z,89.20
2018-12-14T08:25:39.201Z,63.93
2018-12-14T08:28:08.194Z,71.63
2018-12-14T08:30:37.312Z,65.37
2018-12-14T08:33:06.403Z,59.97
2018-12-14T08:35:35.292Z,52.37
2018-12-14T08:38:04.324Z,42.50
2018-12-14T08:40:33.393Z,38.27
2018-12-14T08:43:02.040Z,52.23
2018-12-14T08:45:30.936Z,68.87
2018-12-14T08:48:00.151Z,63.77
2018-12-14T08:50:29.054Z,57.83
2018-12-14T08:52:57.938Z,58.33
2018-12-14T08:55:26.611Z,49.47
2018-12-14T08:57:55.317Z,45.33
2018-12-14T09:00:24.403Z,52.07
2018-12-14T09:02:53.394Z,57.70
2018-12-14T09:05:22.321Z,52.67
2018-12-14T09:07:51.356Z,45.93
2018-12-14T09:10:20.377Z,40.40
2018-12-14T09:12:49.358Z,41.17
2018-12-14T09:15:18.141Z,43.60
2018-12-14T09:17:47.394Z,39.77
2018-12-14T09:20:16.552Z,42.87
2018-12-14T09:22:45.374Z,46.70
2018-12-14T09:25:14.297Z,49.80
2018-12-14T09:27:43.369Z,39.30
2018-12-14T09:30:12.551Z,42.37
2018-12-14T09:32:41.517Z,39.50
2018-12-14T09:35:10.438Z,60.90
2018-12-14T09:37:39.377Z,49.90
2018-12-14T09:40:08.428Z,51.13
2018-12-14T09:42:37.366Z,46.40
2018-12-14T09:45:06.931Z,54.87
2018-12-14T09:47:35.918Z,61.47
2018-12-14T09:50:05.192Z,44.93
2018-12-14T09:52:34.164Z,40.73
2018-12-14T09:55:03.204Z,41.30
2018-12-14T09:57:32.103Z,46.37
2018-12-14T10:00:01.006Z,44.03
2018-12-14T10:02:30.124Z,49.53
2018-12-14T10:04:59.042Z,56.73
2018-12-14T10:07:27.975Z,48.87
2018-12-14T10:09:56.940Z,51.47
2018-12-14T10:12:25.952Z,61.80
2018-12-14T10:14:54.794Z,42.97
2018-12-14T10:17:23.664Z,46.87
2018-12-14T10:19:52.708Z,48.27
2018-12-14T10:22:21.797Z,59.17
2018-12-14T10:24:50.646Z,53.97
2018-12-14T10:27:19.710Z,53.97
2018-12-14T10:29:48.720Z,55.07
2018-12-14T10:32:17.723Z,44.90
2018-12-14T10:34:46.821Z,42.37
2018-12-14T10:37:15.489Z,43.97
2018-12-14T10:39:44.544Z,48.73
2018-12-14T10:42:13.618Z,45.60
2018-12-14T10:44:42.547Z,47.73
2018-12-14T10:47:11.713Z,42.33
2018-12-14T10:49:40.810Z,43.23
2018-12-14T10:52:09.427Z,39.63
2018-12-14T10:54:38.735Z,43.23
2018-12-14T10:57:07.675Z,41.97
2018-12-14T10:59:36.640Z,44.23
2018-12-14T11:02:05.356Z,50.70
2018-12-14T11:04:34.121Z,64.37
2018-12-14T11:07:03.042Z,52.37
2018-12-14T11:09:32.245Z,74.80
2018-12-14T11:12:01.242Z,44.80
2018-12-14T11:14:29.943Z,42.70
2018-12-14T11:16:58.901Z,44.40
2018-12-14T11:19:27.896Z,46.00
2018-12-14T11:21:56.792Z,39.93
2018-12-14T11:24:25.847Z,40.17
2018-12-14T11:26:54.985Z,44.63
2018-12-14T11:29:24.562Z,37.57
2018-12-14T11:31:53.168Z,41.57
2018-12-14T11:34:22.325Z,38.37
2018-12-14T11:36:51.097Z,42.67
2018-12-14T11:39:20.206Z,37.70
2018-12-14T11:41:49.213Z,38.77
2018-12-14T11:44:21.342Z,45.50
2018-12-14T11:46:49.232Z,45.80
2018-12-14T11:49:18.185Z,45.50
2018-12-14T11:51:47.315Z,43.40
2018-12-14T11:54:17.492Z,43.27
2018-12-14T11:56:46.348Z,44.87
2018-12-14T11:59:15.260Z,45.27
2018-12-14T12:01:44.274Z,53.67
2018-12-14T12:04:13.265Z,47.27
2018-12-14T12:06:42.220Z,48.70
2018-12-14T12:09:12.303Z,47.73
2018-12-14T12:11:41.252Z,58.03
2018-12-14T12:14:10.227Z,66.07
2018-12-14T12:16:39.277Z,59.50
2018-12-14T12:19:08.285Z,53.63
2018-12-14T12:21:37.450Z,53.17
2018-12-14T12:24:06.248Z,47.60
2018-12-14T12:26:35.157Z,42.30
2018-12-14T12:29:03.849Z,38.53
2018-12-14T12:31:32.779Z,37.37
2018-12-14T12:34:01.476Z,39.87
2018-12-14T12:36:30.478Z,45.63
2018-12-14T12:38:59.400Z,43.17
2018-12-14T12:41:28.212Z,41.10
2018-12-14T12:43:57.277Z,41.33
2018-12-14T12:46:26.377Z,49.23
2018-12-14T12:48:55.502Z,45.17
2018-12-14T12:51:24.960Z,58.47
2018-12-14T12:53:53.707Z,49.57
2018-12-14T12:56:22.924Z,40.97
2018-12-14T12:58:51.912Z,43.17
2018-12-14T13:01:20.859Z,43.23
2018-12-14T13:03:49.896Z,46.93
2018-12-14T13:06:18.971Z,44.30
2018-12-14T13:08:48.070Z,50.43
2018-12-14T13:11:17.081Z,47.53
2018-12-14T13:13:46.031Z,42.63
2018-12-14T13:16:14.757Z,40.80
2018-12-14T13:18:43.549Z,49.03
2018-12-14T13:21:12.474Z,46.43
2018-12-14T13:23:41.513Z,43.87
2018-12-14T13:26:10.522Z,59.97
2018-12-14T13:28:39.461Z,57.67
2018-12-14T13:31:08.538Z,52.27
2018-12-14T13:33:37.704Z,49.97
2018-12-14T13:36:06.885Z,47.87
2018-12-14T13:38:35.831Z,48.13
2018-12-14T13:41:04.941Z,48.40
2018-12-14T13:43:33.895Z,53.33
2018-12-14T13:46:02.961Z,60.03
2018-12-14T13:48:31.799Z,48.00
2018-12-14T13:51:00.871Z,55.50
2018-12-14T13:53:29.868Z,62.13
2018-12-14T13:55:58.942Z,71.50
2018-12-14T13:58:28.003Z,67.63
2018-12-14T14:00:57.068Z,64.73
2018-12-14T14:03:25.984Z,63.23
2018-12-14T14:05:54.861Z,69.43
2018-12-14T14:08:23.831Z,60.93
2018-12-14T14:10:52.828Z,54.83
2018-12-14T14:13:21.895Z,56.17
2018-12-14T14:15:51.003Z,60.53
2018-12-14T14:18:19.943Z,68.60
2018-12-14T14:20:48.887Z,64.80
2018-12-14T14:23:17.708Z,58.43
2018-12-14T14:25:47.272Z,64.07
2018-12-14T14:28:16.289Z,68.40
2018-12-14T14:30:45.207Z,72.67
2018-12-14T14:33:14.152Z,65.40
2018-12-14T14:35:43.178Z,75.23
2018-12-14T14:38:12.216Z,73.27
2018-12-14T14:40:41.236Z,61.13
2018-12-14T14:43:10.156Z,55.40
2018-12-14T14:45:39.048Z,55.03
2018-12-14T14:48:08.207Z,53.90
2018-12-14T14:50:37.706Z,53.17
2018-12-14T14:53:06.642Z,49.90
2018-12-14T14:55:35.669Z,53.17
2018-12-14T14:58:04.764Z,62.73
2018-12-14T15:00:34.072Z,64.67
2018-12-14T15:03:03.250Z,66.10
2018-12-14T15:05:32.462Z,65.33
2018-12-14T15:08:01.393Z,57.43
2018-12-14T15:10:30.486Z,57.70
2018-12-14T15:12:59.307Z,60.33
2018-12-14T15:15:28.346Z,56.90
2018-12-14T15:17:57.128Z,57.20
2018-12-14T15:20:25.983Z,56.73
2018-12-14T15:22:54.844Z,66.20
2018-12-14T15:25:24.016Z,69.17
2018-12-14T15:27:53.332Z,74.70
2018-12-14T15:30:22.122Z,68.20
2018-12-14T15:32:50.944Z,71.83
2018-12-14T15:35:19.602Z,86.10
2018-12-14T15:37:48.437Z,142.73
2018-12-14T15:40:17.489Z,120.83
2018-12-14T15:42:46.424Z,110.80
2018-12-14T15:45:15.116Z,81.50
2018-12-14T15:47:44.125Z,78.40
2018-12-14T15:50:12.908Z,73.23
2018-12-14T15:52:41.629Z,72.37
2018-12-14T15:55:10.811Z,69.87
2018-12-14T15:57:39.815Z,70.23
2018-12-14T16:00:08.867Z,67.80
2018-12-14T16:02:37.911Z,61.80
2018-12-14T16:05:06.935Z,69.50
2018-12-14T16:07:35.718Z,70.83
2018-12-14T16:10:06.915Z,78.80
2018-12-14T16:12:36.022Z,82.60
2018-12-14T16:15:05.969Z,85.17
2018-12-14T16:17:35.544Z,96.27
2018-12-14T16:20:05.148Z,86.23
2018-12-14T16:22:34.253Z,77.80
2018-12-14T16:25:03.222Z,126.37
2018-12-14T16:27:32.264Z,117.20
2018-12-14T16:30:01.208Z,100.50
2018-12-14T16:32:30.195Z,92.33
2018-12-14T16:34:59.001Z,76.63
2018-12-14T16:37:27.968Z,88.87
2018-12-14T16:39:56.933Z,82.93
2018-12-14T16:42:26.785Z,82.00
2018-12-14T16:44:55.780Z,74.87
2018-12-14T16:47:25.727Z,87.90
2018-12-14T16:49:54.687Z,71.03
2018-12-14T16:52:23.608Z,76.50
2018-12-14T16:54:52.717Z,71.23
2018-12-14T16:57:21.756Z,64.37
2018-12-14T16:59:50.659Z,77.33
2018-12-14T17:02:19.769Z,69.90
2018-12-14T17:04:49.041Z,70.77
2018-12-14T17:07:18.064Z,70.73
2018-12-14T17:09:47.032Z,73.87
2018-12-14T17:12:15.968Z,65.13
2018-12-14T17:14:44.661Z,64.60
2018-12-14T17:17:13.642Z,63.43
2018-12-14T17:19:42.636Z,71.77
2018-12-14T17:22:11.705Z,70.70
2018-12-14T17:24:40.828Z,105.73
2018-12-14T17:27:10.049Z,148.87
2018-12-14T17:29:39.245Z,162.67
2018-12-14T17:32:08.040Z,108.87
2018-12-14T17:34:36.927Z,82.17
2018-12-14T17:37:05.888Z,73.33
2018-12-14T17:39:35.646Z,64.27
2018-12-14T17:42:04.711Z,69.37
2018-12-14T17:44:33.743Z,65.47
2018-12-14T17:47:02.812Z,65.20
2018-12-14T17:49:31.728Z,59.63
2018-12-14T17:52:00.722Z,62.10
2018-12-14T17:54:29.812Z,61.63
2018-12-14T17:56:58.805Z,79.07
2018-12-14T17:59:27.864Z,71.77
2018-12-14T18:01:56.842Z,98.97
2018-12-14T18:04:25.848Z,145.77
2018-12-14T18:06:54.716Z,102.30
2018-12-14T18:09:24.030Z,117.87
2018-12-14T18:11:52.844Z,103.80
2018-12-14T18:14:21.712Z,101.13
2018-12-14T18:16:50.775Z,79.63
2018-12-14T18:19:19.744Z,70.97
2018-12-14T18:21:48.490Z,175.83
2018-12-14T18:24:17.598Z,200.60
2018-12-14T18:26:48.237Z,212.63
2018-12-14T18:29:16.890Z,139.97
2018-12-14T18:31:45.721Z,112.50
2018-12-14T18:34:14.821Z,106.63
2018-12-14T18:36:43.844Z,114.67
2018-12-14T18:39:12.907Z,140.63
2018-12-14T18:41:42.049Z,219.47
2018-12-14T18:44:10.768Z,215.27
2018-12-14T18:46:40.399Z,131.40
2018-12-14T18:49:09.489Z,148.03
2018-12-14T18:51:40.097Z,109.70
2018-12-14T18:54:09.016Z,123.80
2018-12-14T18:56:38.040Z,150.07
2018-12-14T18:59:07.160Z,132.97
2018-12-14T19:01:36.102Z,135.40
2018-12-14T19:04:05.080Z,105.33
2018-12-14T19:06:33.946Z,76.17
2018-12-14T19:09:02.801Z,68.67
2018-12-14T19:11:31.815Z,101.20
2018-12-14T19:14:00.844Z,116.53
2018-12-14T19:16:30.715Z,166.07
2018-12-14T19:18:59.386Z,141.90
2018-12-14T19:21:28.816Z,118.37
2018-12-14T19:23:57.613Z,126.27
2018-12-14T19:26:26.483Z,145.67
2018-12-14T19:28:55.467Z,130.60
2018-12-14T19:31:24.716Z,152.87
2018-12-14T19:33:53.710Z,103.10
2018-12-14T19:36:22.698Z,78.37
2018-12-14T19:38:52.264Z,85.13
2018-12-14T19:41:21.296Z,74.13
2018-12-14T19:43:50.304Z,78.70
2018-12-14T19:46:19.251Z,79.70
2018-12-14T19:48:48.180Z,79.10
2018-12-14T19:51:17.176Z,83.10
2018-12-14T19:53:46.257Z,75.27
2018-12-14T19:56:15.287Z,75.73
2018-12-14T19:58:44.561Z,70.17
2018-12-14T20:01:13.641Z,70.37
2018-12-14T20:03:42.947Z,66.10
2018-12-14T20:06:11.569Z,73.93
2018-12-14T20:08:40.558Z,69.27
2018-12-14T20:11:09.668Z,67.77
2018-12-14T20:13:38.560Z,69.90
2018-12-14T20:16:12.794Z,62.43
2018-12-14T20:18:38.458Z,59.60
2018-12-14T20:21:07.128Z,63.97
2018-12-14T20:23:36.260Z,296.40
2018-12-14T20:26:05.105Z,134.40
2018-12-14T20:28:34.073Z,122.73
2018-12-14T20:31:03.102Z,97.43
2018-12-14T20:33:32.393Z,69.83
2018-12-14T20:36:00.999Z,59.60
2018-12-14T20:38:29.703Z,112.23
2018-12-14T20:40:58.751Z,150.50
2018-12-14T20:43:28.463Z,95.13
2018-12-14T20:45:57.660Z,92.83
2018-12-14T20:48:26.850Z,81.97
2018-12-14T20:50:55.828Z,76.53
2018-12-14T20:53:24.774Z,76.70
2018-12-14T20:55:53.431Z,71.03
2018-12-14T20:58:22.207Z,67.17
2018-12-14T21:00:50.986Z,77.27
2018-12-14T21:03:19.909Z,69.23
2018-12-14T21:05:48.849Z,74.47
2018-12-14T21:08:17.740Z,78.33
2018-12-14T21:10:46.656Z,84.83
2018-12-14T21:13:15.808Z,91.97
2018-12-14T21:15:44.823Z,79.73
2018-12-14T21:18:13.628Z,81.83
2018-12-14T21:20:42.540Z,86.00
2018-12-14T21:23:11.840Z,96.47
2018-12-14T21:25:40.973Z,93.17
2018-12-14T21:28:09.978Z,89.37
2018-12-14T21:30:38.666Z,101.03
2018-12-14T21:33:07.424Z,111.57
2018-12-14T21:35:36.299Z,117.17
2018-12-14T21:38:05.234Z,98.67
2018-12-14T21:40:34.252Z,89.97
2018-12-14T21:43:03.283Z,87.03
2018-12-14T21:45:32.235Z,75.83
2018-12-14T21:48:00.925Z,73.07
2018-12-14T21:50:29.692Z,69.93
2018-12-14T21:52:58.624Z,67.13
2018-12-14T21:55:27.648Z,73.40
2018-12-14T21:57:56.918Z,74.80
2018-12-14T22:00:25.884Z,71.50
2018-12-14T22:02:54.751Z,80.80
2018-12-14T22:05:23.802Z,76.63
2018-12-14T22:07:52.859Z,78.13
2018-12-14T22:10:21.585Z,80.33
2018-12-14T22:12:50.748Z,82.13
2018-12-14T22:15:19.617Z,82.77
2018-12-14T22:17:48.709Z,93.47
2018-12-14T22:20:17.772Z,83.17
2018-12-14T22:22:46.547Z,84.17
2018-12-14T22:25:15.236Z,86.73
2018-12-14T22:27:43.963Z,84.70
2018-12-14T22:30:12.749Z,88.57
2018-12-14T22:32:41.540Z,95.60
2018-12-14T22:35:10.556Z,86.57
2018-12-14T22:37:39.560Z,86.67
2018-12-14T22:40:08.834Z,92.77
2018-12-14T22:42:37.831Z,87.10
2018-12-14T22:45:07.300Z,93.43
2018-12-14T22:47:36.334Z,88.03
2018-12-14T22:50:05.517Z,88.17
2018-12-14T22:52:34.426Z,91.37
2018-12-14T22:55:03.574Z,109.13
2018-12-14T22:57:32.596Z,95.10
2018-12-14T23:00:01.284Z,88.60
2018-12-14T23:02:30.100Z,90.97
2018-12-14T23:04:59.163Z,100.03
2018-12-14T23:07:28.118Z,92.87
2018-12-14T23:09:57.032Z,102.80
2018-12-14T23:12:25.713Z,103.67
2018-12-14T23:14:54.679Z,103.50
2018-12-14T23:17:23.625Z,103.80
2018-12-14T23:19:52.535Z,94.43
2018-12-14T23:22:21.260Z,94.70
2018-12-14T23:24:50.289Z,95.57
2018-12-14T23:27:19.387Z,97.57
2018-12-14T23:29:48.345Z,95.60
2018-12-14T23:32:16.999Z,93.60
2018-12-14T23:34:45.883Z,100.67
2018-12-14T23:37:14.947Z,102.60
2018-12-14T23:39:43.808Z,95.57
2018-12-14T23:42:12.887Z,88.37
2018-12-14T23:44:41.649Z,97.87
2018-12-14T23:47:10.580Z,89.60
2018-12-14T23:49:39.513Z,93.83
2018-12-14T23:52:08.266Z,91.17
2018-12-14T23:54:37.342Z,86.30
2018-12-14T23:57:12.120Z,84.13
2018-12-14T23:59:37.500Z,87.60
